createdAt,value
2018-12-13T00:00:17.980Z,0.47
2018-12-13T00:01:26.021Z,0.42
2018-12-13T00:02:34.101Z,0.41
2018-12-13T00:03:42.162Z,0.46
2018-12-13T00:04:50.219Z,0.42
2018-12-13T00:05:58.248Z,0.55
2018-12-13T00:07:06.314Z,0.49
2018-12-13T00:08:18.501Z,0.51
2018-12-13T00:09:22.466Z,0.49
2018-12-13T00:10:32.166Z,0.47
2018-12-13T00:11:38.776Z,0.42
2018-12-13T00:12:46.599Z,0.47
2018-12-13T00:13:54.746Z,0.46
2018-12-13T00:15:02.693Z,0.39
2018-12-13T00:16:10.739Z,0.49
2018-12-13T00:17:18.839Z,0.42
2018-12-13T00:18:26.913Z,0.47
2018-12-13T00:19:34.920Z,0.39
2018-12-13T00:20:42.962Z,0.49
2018-12-13T00:21:51.007Z,0.51
2018-12-13T00:22:59.249Z,0.47
2018-12-13T00:24:07.110Z,0.44
2018-12-13T00:25:15.238Z,0.42
2018-12-13T00:26:23.206Z,0.38
2018-12-13T00:27:31.626Z,0.39
2018-12-13T00:28:39.342Z,0.42
2018-12-13T00:29:47.973Z,0.38
2018-12-13T00:30:55.439Z,0.38
2018-12-13T00:32:03.492Z,0.41
2018-12-13T00:33:11.523Z,0.46
2018-12-13T00:34:19.693Z,0.46
2018-12-13T00:35:27.659Z,0.39
2018-12-13T00:36:39.656Z,0.47
2018-12-13T00:37:43.728Z,0.47
2018-12-13T00:38:51.835Z,0.46
2018-12-13T00:40:01.870Z,0.36
2018-12-13T00:41:07.904Z,0.51
2018-12-13T00:42:16.047Z,0.49
2018-12-13T00:43:24.105Z,0.47
2018-12-13T00:44:32.205Z,0.44
2018-12-13T00:45:40.175Z,0.44
2018-12-13T00:46:48.167Z,0.41
2018-12-13T00:47:56.230Z,0.32
2018-12-13T00:49:04.379Z,0.26
2018-12-13T00:50:12.705Z,0.24
2018-12-13T00:51:20.409Z,0.18
2018-12-13T00:52:28.824Z,0.23
2018-12-13T00:53:36.832Z,0.23
2018-12-13T00:54:44.532Z,0.18
2018-12-13T00:55:52.603Z,0.13
2018-12-13T00:57:00.738Z,0.23
2018-12-13T00:58:08.722Z,0.23
2018-12-13T00:59:17.165Z,0.17
2018-12-13T01:00:25.054Z,0.28
2018-12-13T01:01:32.869Z,0.29
2018-12-13T01:02:40.915Z,0.29
2018-12-13T01:03:49.385Z,0.31
2018-12-13T01:04:57.018Z,0.39
2018-12-13T01:06:05.059Z,0.24
2018-12-13T01:07:13.132Z,0.26
2018-12-13T01:08:21.211Z,0.29
2018-12-13T01:09:29.242Z,0.29
2018-12-13T01:10:37.305Z,0.35
2018-12-13T01:11:45.392Z,0.31
2018-12-13T01:12:53.932Z,0.26
2018-12-13T01:14:01.455Z,0.24
2018-12-13T01:15:09.666Z,0.35
2018-12-13T01:16:17.545Z,0.24
2018-12-13T01:17:25.601Z,0.42
2018-12-13T01:18:33.674Z,0.35
2018-12-13T01:19:42.000Z,0.32
2018-12-13T01:20:49.759Z,0.28
2018-12-13T01:21:58.252Z,0.29
2018-12-13T01:23:05.917Z,0.23
2018-12-13T01:24:13.948Z,0.23
2018-12-13T01:25:21.983Z,0.20
2018-12-13T01:26:30.040Z,0.20
2018-12-13T01:27:38.088Z,0.24
2018-12-13T01:28:46.122Z,0.02
2018-12-13T01:29:54.197Z,0.10
2018-12-13T01:31:02.250Z,0.13
2018-12-13T01:32:10.312Z,0.20
2018-12-13T01:33:18.357Z,0.08
2018-12-13T01:34:26.644Z,0.17
2018-12-13T01:35:34.458Z,0.15
2018-12-13T01:36:42.707Z,0.10
2018-12-13T01:37:50.559Z,0.11
2018-12-13T01:38:58.633Z,0.20
2018-12-13T01:40:06.661Z,0.24
2018-12-13T01:41:14.737Z,0.17
2018-12-13T01:42:22.779Z,0.14
2018-12-13T01:43:30.829Z,0.07
2018-12-13T01:44:38.862Z,0.14
2018-12-13T01:45:46.916Z,0.14
2018-12-13T01:46:54.990Z,0.18
2018-12-13T01:48:03.051Z,0.11
2018-12-13T01:49:11.099Z,0.18
2018-12-13T01:50:19.146Z,0.20
2018-12-13T01:51:27.196Z,0.15
2018-12-13T01:52:35.276Z,0.18
2018-12-13T01:53:43.301Z,0.26
2018-12-13T01:54:51.350Z,0.20
2018-12-13T01:55:59.411Z,0.26
2018-12-13T01:57:07.465Z,0.23
2018-12-13T01:58:15.516Z,0.24
2018-12-13T01:59:23.575Z,0.36
2018-12-13T02:00:31.634Z,0.31
2018-12-13T02:01:39.663Z,0.23
2018-12-13T02:02:47.731Z,0.21
2018-12-13T02:03:55.755Z,0.24
2018-12-13T02:05:03.828Z,0.26
2018-12-13T02:06:11.869Z,0.28
2018-12-13T02:07:19.953Z,0.42
2018-12-13T02:08:27.982Z,0.35
2018-12-13T02:09:36.018Z,0.46
2018-12-13T02:10:44.108Z,0.26
2018-12-13T02:11:52.164Z,0.29
2018-12-13T02:13:00.218Z,0.28
2018-12-13T02:14:08.267Z,0.28
2018-12-13T02:15:16.326Z,0.33
2018-12-13T02:16:24.364Z,0.26
2018-12-13T02:17:32.429Z,0.17
2018-12-13T02:18:40.473Z,0.18
2018-12-13T02:19:48.540Z,0.21
2018-12-13T02:20:56.571Z,0.10
2018-12-13T02:22:04.633Z,0.21
2018-12-13T02:23:12.668Z,0.10
2018-12-13T02:24:20.737Z,0.21
2018-12-13T02:25:28.794Z,0.17
2018-12-13T02:26:36.845Z,0.10
2018-12-13T02:27:44.875Z,0.10
2018-12-13T02:28:52.958Z,0.23
2018-12-13T02:30:01.000Z,0.20
2018-12-13T02:31:09.047Z,0.23
2018-12-13T02:32:17.134Z,0.24
2018-12-13T02:33:25.158Z,0.28
2018-12-13T02:34:33.207Z,0.29
2018-12-13T02:35:41.262Z,0.21
2018-12-13T02:36:49.331Z,0.28
2018-12-13T02:37:57.386Z,0.28
2018-12-13T02:39:05.419Z,0.26
2018-12-13T02:40:13.492Z,0.24
2018-12-13T02:41:21.547Z,0.20
2018-12-13T02:42:29.591Z,0.17
2018-12-13T02:43:37.720Z,0.14
2018-12-13T02:44:45.681Z,0.17
2018-12-13T02:45:53.749Z,0.18
2018-12-13T02:47:01.825Z,0.11
2018-12-13T02:48:09.845Z,0.15
2018-12-13T02:49:17.931Z,0.14
2018-12-13T02:50:25.966Z,0.21
2018-12-13T02:51:34.016Z,0.21
2018-12-13T02:52:42.076Z,0.21
2018-12-13T02:53:50.127Z,0.11
2018-12-13T02:54:58.186Z,0.23
2018-12-13T02:56:06.231Z,0.23
2018-12-13T02:57:14.292Z,0.23
2018-12-13T02:58:22.341Z,0.23
2018-12-13T02:59:30.430Z,0.10
2018-12-13T03:00:38.458Z,0.20
2018-12-13T03:01:46.502Z,0.23
2018-12-13T03:02:54.545Z,0.10
2018-12-13T03:04:02.593Z,0.15
2018-12-13T03:05:10.642Z,0.14
2018-12-13T03:06:18.724Z,0.11
2018-12-13T03:07:26.775Z,0.10
2018-12-13T03:08:34.812Z,0.11
2018-12-13T03:09:42.866Z,0.04
2018-12-13T03:10:50.952Z,0.10
2018-12-13T03:11:58.988Z,0.17
2018-12-13T03:13:07.024Z,0.13
2018-12-13T03:14:15.046Z,0.17
2018-12-13T03:15:23.140Z,0.10
2018-12-13T03:16:31.193Z,0.08
2018-12-13T03:17:39.245Z,0.11
2018-12-13T03:18:47.280Z,0.08
2018-12-13T03:19:55.383Z,0.04
2018-12-13T03:21:03.408Z,0.14
2018-12-13T03:22:11.439Z,0.20
2018-12-13T03:23:19.510Z,0.15
2018-12-13T03:24:27.545Z,0.14
2018-12-13T03:25:35.577Z,0.13
2018-12-13T03:26:43.652Z,-0.01
2018-12-13T03:27:51.696Z,0.03
2018-12-13T03:28:59.766Z,0.18
2018-12-13T03:30:07.842Z,0.10
2018-12-13T03:31:15.886Z,0.17
2018-12-13T03:32:23.918Z,0.08
2018-12-13T03:33:31.976Z,0.11
2018-12-13T03:34:40.047Z,0.08
2018-12-13T03:35:48.098Z,0.11
2018-12-13T03:36:56.146Z,0.08
2018-12-13T03:38:04.217Z,0.21
2018-12-13T03:39:12.237Z,0.08
2018-12-13T03:40:20.296Z,0.15
2018-12-13T03:41:28.366Z,0.20
2018-12-13T03:42:36.398Z,0.13
2018-12-13T03:43:44.454Z,0.17
2018-12-13T03:44:52.516Z,0.11
2018-12-13T03:46:00.590Z,0.10
2018-12-13T03:47:08.640Z,0.11
2018-12-13T03:48:16.671Z,-0.08
2018-12-13T03:49:24.728Z,-0.10
2018-12-13T03:50:32.787Z,-0.10
2018-12-13T03:51:40.831Z,-0.14
2018-12-13T03:52:48.868Z,-0.07
2018-12-13T03:53:56.929Z,-0.14
2018-12-13T03:55:04.986Z,-0.05
2018-12-13T03:56:13.053Z,-0.07
2018-12-13T03:57:21.121Z,0.02
2018-12-13T03:58:29.150Z,0.03
2018-12-13T03:59:37.211Z,0.03
2018-12-13T04:00:45.244Z,-0.11
2018-12-13T04:01:53.318Z,-0.14
2018-12-13T04:03:01.356Z,-0.22
2018-12-13T04:04:09.409Z,-0.19
2018-12-13T04:05:17.474Z,-0.08
2018-12-13T04:06:25.510Z,-0.18
2018-12-13T04:07:33.576Z,-0.19
2018-12-13T04:08:41.620Z,-0.22
2018-12-13T04:09:49.688Z,-0.23
2018-12-13T04:10:57.730Z,-0.19
2018-12-13T04:12:05.753Z,-0.18
2018-12-13T04:13:13.820Z,-0.23
2018-12-13T04:14:21.874Z,-0.25
2018-12-13T04:15:29.954Z,-0.22
2018-12-13T04:16:38.016Z,-0.23
2018-12-13T04:17:46.034Z,-0.19
2018-12-13T04:18:54.097Z,-0.10
2018-12-13T04:20:02.179Z,-0.08
2018-12-13T04:21:10.196Z,-0.05
2018-12-13T04:22:18.263Z,-0.07
2018-12-13T04:23:26.317Z,-0.10
2018-12-13T04:24:34.375Z,-0.08
2018-12-13T04:25:42.418Z,-0.10
2018-12-13T04:26:50.480Z,0.00
2018-12-13T04:27:58.520Z,-0.18
2018-12-13T04:29:06.580Z,-0.08
2018-12-13T04:30:14.619Z,-0.08
2018-12-13T04:31:22.779Z,-0.10
2018-12-13T04:32:30.731Z,-0.08
2018-12-13T04:33:38.795Z,-0.08
2018-12-13T04:34:46.831Z,-0.07
2018-12-13T04:35:54.897Z,-0.11
2018-12-13T04:37:02.941Z,-0.15
2018-12-13T04:38:11.012Z,0.04
2018-12-13T04:39:19.055Z,-0.04
2018-12-13T04:40:27.102Z,-0.10
2018-12-13T04:41:35.150Z,-0.04
2018-12-13T04:42:43.202Z,-0.05
2018-12-13T04:43:51.265Z,-0.08
2018-12-13T04:44:59.323Z,-0.04
2018-12-13T04:46:07.396Z,-0.04
2018-12-13T04:47:15.412Z,-0.11
2018-12-13T04:48:23.484Z,-0.28
2018-12-13T04:49:31.736Z,-0.25
2018-12-13T04:50:39.595Z,-0.23
2018-12-13T04:51:47.636Z,-0.29
2018-12-13T04:52:55.688Z,-0.28
2018-12-13T04:54:03.737Z,-0.34
2018-12-13T04:55:11.795Z,-0.31
2018-12-13T04:56:19.838Z,-0.36
2018-12-13T04:57:27.988Z,-0.34
2018-12-13T04:58:35.953Z,-0.31
2018-12-13T04:59:43.994Z,-0.23
2018-12-13T05:00:52.049Z,-0.29
2018-12-13T05:02:00.117Z,-0.33
2018-12-13T05:03:08.164Z,-0.34
2018-12-13T05:04:16.210Z,-0.37
2018-12-13T05:05:24.273Z,-0.29
2018-12-13T05:06:32.328Z,-0.28
2018-12-13T05:07:41.788Z,-0.42
2018-12-13T05:08:48.419Z,-0.40
2018-12-13T05:09:56.498Z,-0.33
2018-12-13T05:11:04.523Z,-0.31
2018-12-13T05:12:12.589Z,-0.34
2018-12-13T05:13:20.620Z,-0.31
2018-12-13T05:14:28.696Z,-0.19
2018-12-13T05:15:36.705Z,-0.26
2018-12-13T05:16:44.790Z,-0.22
2018-12-13T05:17:52.853Z,-0.19
2018-12-13T05:19:00.912Z,-0.18
2018-12-13T05:20:08.953Z,-0.18
2018-12-13T05:21:16.998Z,-0.21
2018-12-13T05:22:25.051Z,-0.15
2018-12-13T05:23:33.115Z,-0.18
2018-12-13T05:24:41.163Z,-0.15
2018-12-13T05:25:49.236Z,-0.05
2018-12-13T05:26:57.279Z,-0.08
2018-12-13T05:28:05.307Z,-0.11
2018-12-13T05:29:13.367Z,-0.10
2018-12-13T05:30:21.430Z,-0.15
2018-12-13T05:31:29.495Z,-0.10
2018-12-13T05:32:37.528Z,-0.08
2018-12-13T05:33:45.580Z,-0.07
2018-12-13T05:34:53.622Z,-0.05
2018-12-13T05:36:01.707Z,-0.05
2018-12-13T05:37:09.742Z,-0.14
2018-12-13T05:38:17.793Z,-0.28
2018-12-13T05:39:25.837Z,-0.22
2018-12-13T05:40:33.880Z,-0.29
2018-12-13T05:41:41.972Z,-0.18
2018-12-13T05:42:49.995Z,-0.18
2018-12-13T05:43:58.064Z,-0.10
2018-12-13T05:45:06.110Z,-0.18
2018-12-13T05:46:14.165Z,-0.14
2018-12-13T05:47:22.198Z,-0.08
2018-12-13T05:48:30.261Z,-0.11
2018-12-13T05:49:38.333Z,-0.11
2018-12-13T05:50:46.380Z,-0.05
2018-12-13T05:51:54.418Z,-0.07
2018-12-13T05:53:02.498Z,-0.08
2018-12-13T05:54:10.541Z,-0.08
2018-12-13T05:55:18.600Z,-0.03
2018-12-13T05:56:26.646Z,-0.08
2018-12-13T05:57:34.691Z,-0.08
2018-12-13T05:58:42.749Z,-0.18
2018-12-13T05:59:50.808Z,-0.11
2018-12-13T06:00:58.855Z,0.03
2018-12-13T06:02:06.902Z,0.04
2018-12-13T06:03:14.946Z,0.03
2018-12-13T06:04:23.001Z,0.04
2018-12-13T06:05:31.070Z,-0.07
2018-12-13T06:06:39.133Z,-0.15
2018-12-13T06:07:47.166Z,-0.11
2018-12-13T06:08:55.230Z,-0.08
2018-12-13T06:10:03.285Z,-0.21
2018-12-13T06:11:11.336Z,-0.22
2018-12-13T06:12:19.430Z,-0.19
2018-12-13T06:13:27.431Z,-0.23
2018-12-13T06:14:35.470Z,-0.19
2018-12-13T06:15:43.582Z,-0.33
2018-12-13T06:16:51.598Z,-0.28
2018-12-13T06:17:59.655Z,-0.23
2018-12-13T06:19:07.711Z,-0.25
2018-12-13T06:20:15.745Z,-0.22
2018-12-13T06:21:23.802Z,-0.18
2018-12-13T06:22:31.871Z,-0.16
2018-12-13T06:23:39.915Z,-0.07
2018-12-13T06:24:47.978Z,-0.11
2018-12-13T06:25:56.013Z,-0.19
2018-12-13T06:27:04.076Z,-0.19
2018-12-13T06:28:12.114Z,-0.21
2018-12-13T06:29:20.169Z,-0.23
2018-12-13T06:30:28.235Z,-0.19
2018-12-13T06:31:36.289Z,-0.19
2018-12-13T06:32:44.335Z,-0.23
2018-12-13T06:33:52.387Z,-0.23
2018-12-13T06:35:00.454Z,-0.26
2018-12-13T06:36:08.516Z,-0.18
2018-12-13T06:37:16.584Z,-0.21
2018-12-13T06:38:24.622Z,-0.21
2018-12-13T06:39:32.649Z,-0.21
2018-12-13T06:40:40.703Z,-0.16
2018-12-13T06:41:48.770Z,-0.08
2018-12-13T06:42:56.805Z,-0.08
2018-12-13T06:44:05.120Z,-0.04
2018-12-13T06:45:12.925Z,-0.11
2018-12-13T06:46:20.964Z,-0.11
2018-12-13T06:47:29.470Z,-0.10
2018-12-13T06:48:37.078Z,-0.10
2018-12-13T06:49:45.129Z,-0.04
2018-12-13T06:50:53.195Z,-0.11
2018-12-13T06:52:01.233Z,-0.14
2018-12-13T06:53:09.286Z,-0.11
2018-12-13T06:54:17.357Z,-0.11
2018-12-13T06:55:25.851Z,0.03
2018-12-13T06:56:33.497Z,-0.16
2018-12-13T06:57:41.497Z,-0.16
2018-12-13T06:58:49.556Z,-0.18
2018-12-13T06:59:57.622Z,-0.10
2018-12-13T07:01:05.664Z,-0.10
2018-12-13T07:02:13.706Z,-0.07
2018-12-13T07:03:21.780Z,-0.08
2018-12-13T07:04:29.830Z,0.03
2018-12-13T07:05:37.880Z,0.03
2018-12-13T07:06:46.492Z,0.00
2018-12-13T07:07:54.000Z,0.11
2018-12-13T07:09:02.028Z,0.00
2018-12-13T07:10:10.078Z,-0.01
2018-12-13T07:11:18.642Z,0.02
2018-12-13T07:12:26.182Z,0.02
2018-12-13T07:13:34.242Z,-0.04
2018-12-13T07:14:42.303Z,0.03
2018-12-13T07:15:50.360Z,0.04
2018-12-13T07:16:58.417Z,0.03
2018-12-13T07:18:06.466Z,-0.04
2018-12-13T07:19:14.692Z,0.02
2018-12-13T07:20:22.611Z,-0.10
2018-12-13T07:21:30.873Z,-0.04
2018-12-13T07:22:39.053Z,-0.01
2018-12-13T07:23:47.118Z,0.00
2018-12-13T07:24:54.834Z,0.07
2018-12-13T07:26:02.863Z,0.13
2018-12-13T07:27:11.321Z,0.10
2018-12-13T07:28:19.505Z,0.17
2018-12-13T07:29:27.385Z,0.13
2018-12-13T07:30:35.125Z,0.17
2018-12-13T07:31:43.079Z,0.14
2018-12-13T07:32:51.411Z,0.15
2018-12-13T07:33:59.911Z,0.11
2018-12-13T07:35:07.761Z,0.20
2018-12-13T07:36:15.468Z,-0.04
2018-12-13T07:37:23.344Z,0.03
2018-12-13T07:38:31.887Z,-0.03
2018-12-13T07:39:39.461Z,0.14
2018-12-13T07:40:47.524Z,0.13
2018-12-13T07:41:55.555Z,0.07
2018-12-13T07:43:03.623Z,0.10
2018-12-13T07:44:11.674Z,0.11
2018-12-13T07:45:21.574Z,0.00
2018-12-13T07:46:27.990Z,0.10
2018-12-13T07:47:36.010Z,0.11
2018-12-13T07:48:43.885Z,0.15
2018-12-13T07:49:51.941Z,0.03
2018-12-13T07:51:00.020Z,0.10
2018-12-13T07:52:08.053Z,0.13
2018-12-13T07:53:16.318Z,0.11
2018-12-13T07:54:24.147Z,0.15
2018-12-13T07:55:32.217Z,0.07
2018-12-13T07:56:40.267Z,0.11
2018-12-13T07:57:48.314Z,0.15
2018-12-13T07:58:57.010Z,0.15
2018-12-13T08:00:05.343Z,0.17
2018-12-13T08:01:12.818Z,0.08
2018-12-13T08:02:20.512Z,0.11
2018-12-13T08:03:28.595Z,0.11
2018-12-13T08:04:36.636Z,0.10
2018-12-13T08:05:44.708Z,0.13
2018-12-13T08:06:52.734Z,0.13
2018-12-13T08:08:00.787Z,0.14
2018-12-13T08:09:08.881Z,0.20
2018-12-13T08:10:16.901Z,0.20
2018-12-13T08:11:24.950Z,0.20
2018-12-13T08:12:33.024Z,0.21
2018-12-13T08:13:41.069Z,0.23
2018-12-13T08:14:49.582Z,0.24
2018-12-13T08:15:57.428Z,0.23
2018-12-13T08:17:05.227Z,0.24
2018-12-13T08:18:13.416Z,0.20
2018-12-13T08:19:21.327Z,0.29
2018-12-13T08:20:29.385Z,0.17
2018-12-13T08:21:37.579Z,0.04
2018-12-13T08:22:45.657Z,0.03
2018-12-13T08:23:53.540Z,0.02
2018-12-13T08:25:01.598Z,-0.11
2018-12-13T08:26:09.653Z,-0.05
2018-12-13T08:27:17.727Z,-0.10
2018-12-13T08:28:25.798Z,-0.10
2018-12-13T08:29:33.815Z,-0.03
2018-12-13T08:30:41.867Z,-0.05
2018-12-13T08:31:50.122Z,0.00
2018-12-13T08:32:58.096Z,-0.04
2018-12-13T08:34:06.024Z,-0.05
2018-12-13T08:35:14.065Z,-0.05
2018-12-13T08:36:22.120Z,-0.14
2018-12-13T08:37:30.276Z,-0.07
2018-12-13T08:38:38.247Z,-0.04
2018-12-13T08:39:46.284Z,-0.11
2018-12-13T08:40:54.359Z,0.02
2018-12-13T08:42:02.414Z,0.04
2018-12-13T08:43:10.460Z,-0.08
2018-12-13T08:44:18.516Z,-0.10
2018-12-13T08:45:26.582Z,-0.10
2018-12-13T08:46:36.564Z,-0.08
2018-12-13T08:47:42.676Z,0.00
2018-12-13T08:48:50.700Z,-0.05
2018-12-13T08:49:58.768Z,-0.10
2018-12-13T08:51:06.827Z,-0.14
2018-12-13T08:52:14.878Z,-0.21
2018-12-13T08:53:22.924Z,-0.26
2018-12-13T08:54:30.997Z,-0.14
2018-12-13T08:55:39.035Z,-0.22
2018-12-13T08:56:47.392Z,-0.19
2018-12-13T08:57:55.107Z,-0.08
2018-12-13T08:59:03.225Z,-0.16
2018-12-13T09:00:11.259Z,-0.10
2018-12-13T09:01:19.292Z,-0.03
2018-12-13T09:02:27.386Z,0.07
2018-12-13T09:03:35.405Z,-0.15
2018-12-13T09:04:43.490Z,-0.07
2018-12-13T09:05:51.509Z,-0.07
2018-12-13T09:06:59.557Z,-0.15
2018-12-13T09:08:07.628Z,-0.14
2018-12-13T09:09:16.019Z,-0.25
2018-12-13T09:10:23.736Z,-0.16
2018-12-13T09:11:31.795Z,-0.14
2018-12-13T09:12:39.831Z,-0.04
2018-12-13T09:13:47.914Z,-0.08
2018-12-13T09:14:55.949Z,-0.08
2018-12-13T09:16:03.985Z,0.08
2018-12-13T09:17:12.027Z,0.04
2018-12-13T09:18:20.092Z,0.00
2018-12-13T09:19:28.153Z,-0.03
2018-12-13T09:20:36.212Z,0.11
2018-12-13T09:21:44.250Z,0.10
2018-12-13T09:22:52.292Z,0.21
2018-12-13T09:24:00.428Z,0.24
2018-12-13T09:25:08.436Z,0.23
2018-12-13T09:26:16.453Z,0.11
2018-12-13T09:27:24.536Z,0.15
2018-12-13T09:28:32.588Z,0.17
2018-12-13T09:29:40.635Z,0.07
2018-12-13T09:30:48.852Z,0.04
2018-12-13T09:31:56.725Z,0.24
2018-12-13T09:33:05.067Z,0.31
2018-12-13T09:34:13.029Z,0.11
2018-12-13T09:35:20.909Z,0.15
2018-12-13T09:36:28.955Z,0.23
2018-12-13T09:37:37.205Z,0.24
2018-12-13T09:38:45.081Z,0.18
2018-12-13T09:39:53.311Z,0.08
2018-12-13T09:41:01.409Z,0.07
2018-12-13T09:42:09.356Z,0.23
2018-12-13T09:43:17.263Z,0.24
2018-12-13T09:44:25.410Z,0.26
2018-12-13T09:45:33.761Z,0.35
2018-12-13T09:46:41.438Z,0.39
2018-12-13T09:47:49.491Z,0.36
2018-12-13T09:48:57.542Z,0.46
2018-12-13T09:50:05.669Z,0.44
2018-12-13T09:51:14.044Z,0.41
2018-12-13T09:52:22.183Z,0.42
2018-12-13T09:53:29.855Z,0.47
2018-12-13T09:54:39.083Z,0.38
2018-12-13T09:55:45.935Z,0.39
2018-12-13T09:56:53.925Z,0.44
2018-12-13T09:58:02.164Z,0.46
2018-12-13T09:59:10.048Z,0.47
2018-12-13T10:00:18.151Z,0.46
2018-12-13T10:01:26.148Z,0.31
2018-12-13T10:02:34.233Z,0.29
2018-12-13T10:03:42.265Z,0.36
2018-12-13T10:04:50.314Z,0.33
2018-12-13T10:05:58.353Z,0.29
2018-12-13T10:07:06.399Z,0.41
2018-12-13T10:08:14.477Z,0.23
2018-12-13T10:09:22.518Z,0.10
2018-12-13T10:10:30.575Z,0.07
2018-12-13T10:11:39.159Z,-0.01
2018-12-13T10:12:46.939Z,0.15
2018-12-13T10:13:55.085Z,0.20
2018-12-13T10:15:03.099Z,0.11
2018-12-13T10:16:10.996Z,0.24
2018-12-13T10:17:18.907Z,0.21
2018-12-13T10:18:27.116Z,0.13
2018-12-13T10:19:35.071Z,0.15
2018-12-13T10:20:43.056Z,0.28
2018-12-13T10:21:51.378Z,0.42
2018-12-13T10:22:59.466Z,0.61
2018-12-13T10:24:07.242Z,0.65
2018-12-13T10:25:15.504Z,0.72
2018-12-13T10:26:23.313Z,0.76
2018-12-13T10:27:31.393Z,0.62
2018-12-13T10:28:39.682Z,0.58
2018-12-13T10:29:47.743Z,0.66
2018-12-13T10:30:55.652Z,0.70
2018-12-13T10:32:03.619Z,0.75
2018-12-13T10:33:11.635Z,0.86
2018-12-13T10:34:19.699Z,0.75
2018-12-13T10:35:27.745Z,0.69
2018-12-13T10:36:35.808Z,0.69
2018-12-13T10:37:43.877Z,0.69
2018-12-13T10:38:53.097Z,0.72
2018-12-13T10:39:59.970Z,0.73
2018-12-13T10:41:08.044Z,0.55
2018-12-13T10:42:16.070Z,0.36
2018-12-13T10:43:24.137Z,0.24
2018-12-13T10:44:32.185Z,0.39
2018-12-13T10:45:40.232Z,0.53
2018-12-13T10:46:48.322Z,0.46
2018-12-13T10:47:56.353Z,0.55
2018-12-13T10:49:04.404Z,0.41
2018-12-13T10:50:12.467Z,0.36
2018-12-13T10:51:20.902Z,0.32
2018-12-13T10:52:28.727Z,0.26
2018-12-13T10:53:36.631Z,0.20
2018-12-13T10:54:45.246Z,0.21
2018-12-13T10:55:52.740Z,0.23
2018-12-13T10:57:00.808Z,0.41
2018-12-13T10:58:09.120Z,0.35
2018-12-13T10:59:16.902Z,0.44
2018-12-13T11:00:24.949Z,0.44
2018-12-13T11:01:33.632Z,0.38
2018-12-13T11:02:41.067Z,0.44
2018-12-13T11:03:50.284Z,0.46
2018-12-13T11:04:57.144Z,0.38
2018-12-13T11:06:05.279Z,0.36
2018-12-13T11:07:13.336Z,0.39
2018-12-13T11:08:21.327Z,0.39
2018-12-13T11:09:29.384Z,0.28
2018-12-13T11:10:38.041Z,0.26
2018-12-13T11:11:45.743Z,0.21
2018-12-13T11:12:53.536Z,0.11
2018-12-13T11:14:01.619Z,0.17
2018-12-13T11:15:09.661Z,0.10
2018-12-13T11:16:17.739Z,0.23
2018-12-13T11:17:25.751Z,0.15
2018-12-13T11:18:33.823Z,0.20
2018-12-13T11:19:41.905Z,0.11
2018-12-13T11:20:49.903Z,0.21
2018-12-13T11:21:57.970Z,0.20
2018-12-13T11:23:06.020Z,0.21
2018-12-13T11:24:14.497Z,0.31
2018-12-13T11:25:22.320Z,0.28
2018-12-13T11:26:30.239Z,0.24
2018-12-13T11:27:38.519Z,0.26
2018-12-13T11:28:46.305Z,0.24
2018-12-13T11:29:54.371Z,0.13
2018-12-13T11:31:02.424Z,0.26
2018-12-13T11:32:10.461Z,0.24
2018-12-13T11:33:18.514Z,0.20
2018-12-13T11:34:26.546Z,0.28
2018-12-13T11:35:34.858Z,0.26
2018-12-13T11:36:42.672Z,0.42
2018-12-13T11:37:50.765Z,0.31
2018-12-13T11:38:58.969Z,0.32
2018-12-13T11:40:07.531Z,0.28
2018-12-13T11:41:14.971Z,0.21
2018-12-13T11:42:24.356Z,0.24
2018-12-13T11:43:31.016Z,0.41
2018-12-13T11:44:39.041Z,0.33
2018-12-13T11:45:47.127Z,0.36
2018-12-13T11:46:55.185Z,0.26
2018-12-13T11:48:03.196Z,0.08
2018-12-13T11:49:12.199Z,0.08
2018-12-13T11:50:19.406Z,0.13
2018-12-13T11:51:27.752Z,0.00
2018-12-13T11:52:35.828Z,0.11
2018-12-13T11:53:43.576Z,0.11
2018-12-13T11:54:51.545Z,0.15
2018-12-13T11:55:59.601Z,0.13
2018-12-13T11:57:07.635Z,0.11
2018-12-13T11:58:15.673Z,0.00
2018-12-13T11:59:24.119Z,0.11
2018-12-13T12:00:32.325Z,0.17
2018-12-13T12:01:39.841Z,0.11
2018-12-13T12:02:47.925Z,-0.14
2018-12-13T12:03:55.978Z,0.08
2018-12-13T12:05:04.034Z,0.00
2018-12-13T12:06:12.067Z,-0.03
2018-12-13T12:07:20.153Z,0.04
2018-12-13T12:08:28.499Z,0.07
2018-12-13T12:09:36.241Z,0.08
2018-12-13T12:10:44.300Z,0.14
2018-12-13T12:11:52.371Z,-0.04
2018-12-13T12:13:00.440Z,-0.15
2018-12-13T12:14:08.907Z,-0.11
2018-12-13T12:15:16.959Z,0.03
2018-12-13T12:16:24.888Z,0.15
2018-12-13T12:17:32.602Z,0.15
2018-12-13T12:18:40.690Z,0.18
2018-12-13T12:19:48.712Z,0.23
2018-12-13T12:20:56.762Z,0.29
2018-12-13T12:22:04.820Z,0.28
2018-12-13T12:23:12.914Z,0.31
2018-12-13T12:24:20.923Z,0.33
2018-12-13T12:25:29.068Z,0.44
2018-12-13T12:26:37.489Z,0.33
2018-12-13T12:27:45.078Z,0.39
2018-12-13T12:28:53.137Z,0.39
2018-12-13T12:30:01.246Z,0.41
2018-12-13T12:31:09.356Z,0.50
2018-12-13T12:32:17.597Z,0.49
2018-12-13T12:33:25.371Z,0.55
2018-12-13T12:34:33.632Z,0.51
2018-12-13T12:35:41.723Z,0.35
2018-12-13T12:36:49.901Z,0.36
2018-12-13T12:37:57.668Z,0.36
2018-12-13T12:39:06.151Z,0.42
2018-12-13T12:40:13.690Z,0.24
2018-12-13T12:41:21.747Z,0.28
2018-12-13T12:42:29.882Z,0.41
2018-12-13T12:43:38.928Z,0.44
2018-12-13T12:44:45.878Z,0.46
2018-12-13T12:45:54.113Z,0.31
2018-12-13T12:47:02.188Z,0.10
2018-12-13T12:48:10.099Z,-0.14
2018-12-13T12:49:18.112Z,-0.07
2018-12-13T12:50:26.145Z,-0.05
2018-12-13T12:51:34.436Z,-0.08
2018-12-13T12:52:42.256Z,-0.14
2018-12-13T12:53:50.380Z,0.03
2018-12-13T12:54:58.388Z,0.17
2018-12-13T12:56:06.465Z,0.21
2018-12-13T12:57:14.499Z,0.20
2018-12-13T12:58:22.537Z,0.26
2018-12-13T12:59:30.586Z,0.10
2018-12-13T13:00:38.669Z,0.00
2018-12-13T13:01:46.708Z,0.14
2018-12-13T13:02:54.774Z,-0.03
2018-12-13T13:04:02.798Z,-0.03
2018-12-13T13:05:10.874Z,0.13
2018-12-13T13:06:18.979Z,0.15
2018-12-13T13:07:27.003Z,0.08
2018-12-13T13:08:35.015Z,0.20
2018-12-13T13:09:43.122Z,0.13
2018-12-13T13:10:51.132Z,0.11
2018-12-13T13:11:59.218Z,0.07
2018-12-13T13:13:07.240Z,0.15
2018-12-13T13:14:15.327Z,0.20
2018-12-13T13:15:23.346Z,0.10
2018-12-13T13:16:31.426Z,0.10
2018-12-13T13:17:39.447Z,0.17
2018-12-13T13:18:47.519Z,0.18
2018-12-13T13:19:55.568Z,0.29
2018-12-13T13:21:03.596Z,0.26
2018-12-13T13:22:11.670Z,0.29
2018-12-13T13:23:19.707Z,0.24
2018-12-13T13:24:27.767Z,0.17
2018-12-13T13:25:35.903Z,0.15
2018-12-13T13:26:43.895Z,0.18
2018-12-13T13:27:51.907Z,0.17
2018-12-13T13:29:00.520Z,0.17
2018-12-13T13:30:08.050Z,0.23
2018-12-13T13:31:16.108Z,0.18
2018-12-13T13:32:24.156Z,0.17
2018-12-13T13:33:32.209Z,0.21
2018-12-13T13:34:40.269Z,0.17
2018-12-13T13:35:48.319Z,0.21
2018-12-13T13:36:56.365Z,0.23
2018-12-13T13:38:04.412Z,0.24
2018-12-13T13:39:12.500Z,0.23
2018-12-13T13:40:20.531Z,0.26
2018-12-13T13:41:28.619Z,0.31
2018-12-13T13:42:36.637Z,0.39
2018-12-13T13:43:44.672Z,0.39
2018-12-13T13:44:52.739Z,0.51
2018-12-13T13:46:00.786Z,0.50
2018-12-13T13:47:08.848Z,0.57
2018-12-13T13:48:16.914Z,0.58
2018-12-13T13:49:24.944Z,0.58
2018-12-13T13:50:33.004Z,0.55
2018-12-13T13:51:41.062Z,0.46
2018-12-13T13:52:49.110Z,0.35
2018-12-13T13:53:57.157Z,0.10
2018-12-13T13:55:05.242Z,0.08
2018-12-13T13:56:13.296Z,0.26
2018-12-13T13:57:21.328Z,0.18
2018-12-13T13:58:29.381Z,0.18
2018-12-13T13:59:37.454Z,0.20
2018-12-13T14:00:45.495Z,0.21
2018-12-13T14:01:53.554Z,0.13
2018-12-13T14:03:01.616Z,0.14
2018-12-13T14:04:09.659Z,0.13
2018-12-13T14:05:17.690Z,0.08
2018-12-13T14:06:25.745Z,0.10
2018-12-13T14:07:33.839Z,0.15
2018-12-13T14:08:41.865Z,0.14
2018-12-13T14:09:49.916Z,0.18
2018-12-13T14:10:57.967Z,0.18
2018-12-13T14:12:06.023Z,0.07
2018-12-13T14:13:14.073Z,0.10
2018-12-13T14:14:22.147Z,0.15
2018-12-13T14:15:30.195Z,-0.07
2018-12-13T14:16:38.255Z,-0.03
2018-12-13T14:17:46.307Z,-0.05
2018-12-13T14:18:54.357Z,-0.08
2018-12-13T14:20:02.407Z,0.07
2018-12-13T14:21:10.454Z,0.02
2018-12-13T14:22:18.525Z,0.08
2018-12-13T14:23:26.557Z,0.13
2018-12-13T14:24:34.622Z,0.13
2018-12-13T14:25:42.671Z,0.23
2018-12-13T14:26:50.717Z,0.23
2018-12-13T14:27:58.785Z,0.26
2018-12-13T14:29:06.848Z,0.26
2018-12-13T14:30:14.899Z,0.36
2018-12-13T14:31:22.927Z,0.41
2018-12-13T14:32:31.005Z,0.20
2018-12-13T14:33:39.044Z,0.23
2018-12-13T14:34:47.096Z,0.23
2018-12-13T14:35:55.163Z,0.10
2018-12-13T14:37:03.212Z,0.23
2018-12-13T14:38:11.275Z,0.20
2018-12-13T14:39:19.325Z,0.13
2018-12-13T14:40:27.462Z,0.11
2018-12-13T14:41:35.415Z,0.15
2018-12-13T14:42:43.470Z,0.13
2018-12-13T14:43:51.538Z,0.11
2018-12-13T14:44:59.570Z,0.08
2018-12-13T14:46:07.646Z,0.14
2018-12-13T14:47:15.659Z,0.10
2018-12-13T14:48:23.735Z,0.03
2018-12-13T14:49:31.796Z,-0.01
2018-12-13T14:50:39.845Z,-0.01
2018-12-13T14:51:47.898Z,-0.14
2018-12-13T14:52:55.966Z,-0.31
2018-12-13T14:54:04.014Z,-0.33
2018-12-13T14:55:12.065Z,-0.23
2018-12-13T14:56:20.139Z,-0.21